sensor_id;sensor_type;location;lat;lon;timestamp;pressure;altitude;pressure_sealevel;temperature;humidity
39455;BME280;25155;41.890;23.446;2023-12-04T00:01:14;91974.47;;;6.23;74.68
39455;BME280;25155;41.890;23.446;2023-12-04T00:03:41;91974.22;;;6.25;74.78
39455;BME280;25155;41.890;23.446;2023-12-04T00:06:09;91980.19;;;6.25;74.67
39455;BME280;25155;41.890;23.446;2023-12-04T00:08:37;91979.19;;;6.26;75.25
39455;BME280;25155;41.890;23.446;2023-12-04T00:11:06;91977.88;;;6.24;74.95
39455;BME280;25155;41.890;23.446;2023-12-04T00:13:33;91971.41;;;6.26;74.79
39455;BME280;25155;41.890;23.446;2023-12-04T00:16:01;91981.00;;;6.26;75.03
39455;BME280;25155;41.890;23.446;2023-12-04T00:18:28;91984.38;;;6.26;74.48
39455;BME280;25155;41.890;23.446;2023-12-04T00:20:55;91993.88;;;6.21;74.74
39455;BME280;25155;41.890;23.446;2023-12-04T00:23:23;91998.47;;;6.19;74.46
39455;BME280;25155;41.890;23.446;2023-12-04T00:25:50;91990.94;;;6.17;74.80
39455;BME280;25155;41.890;23.446;2023-12-04T00:28:19;91989.16;;;6.18;74.57
39455;BME280;25155;41.890;23.446;2023-12-04T00:30:46;91993.28;;;6.19;74.15
39455;BME280;25155;41.890;23.446;2023-12-04T00:33:14;91996.91;;;6.18;73.33
39455;BME280;25155;41.890;23.446;2023-12-04T00:35:41;92000.97;;;6.14;73.09
39455;BME280;25155;41.890;23.446;2023-12-04T00:38:08;91997.53;;;6.08;73.34
39455;BME280;25155;41.890;23.446;2023-12-04T00:40:36;92000.03;;;6.03;72.99
39455;BME280;25155;41.890;23.446;2023-12-04T00:43:03;92002.53;;;5.98;72.99
39455;BME280;25155;41.890;23.446;2023-12-04T00:45:32;92009.38;;;5.92;72.67
39455;BME280;25155;41.890;23.446;2023-12-04T00:47:59;92004.91;;;5.87;72.85
39455;BME280;25155;41.890;23.446;2023-12-04T00:50:26;92014.16;;;5.83;72.88
39455;BME280;25155;41.890;23.446;2023-12-04T00:52:54;92005.03;;;5.81;72.93
39455;BME280;25155;41.890;23.446;2023-12-04T00:55:21;92009.44;;;5.80;72.46
39455;BME280;25155;41.890;23.446;2023-12-04T00:57:48;92003.94;;;5.77;72.93
39455;BME280;25155;41.890;23.446;2023-12-04T01:00:16;92006.75;;;5.75;72.94
39455;BME280;25155;41.890;23.446;2023-12-04T01:02:44;92011.63;;;5.71;72.76
39455;BME280;25155;41.890;23.446;2023-12-04T01:05:11;92005.41;;;5.72;72.93
39455;BME280;25155;41.890;23.446;2023-12-04T01:07:39;91995.84;;;5.73;72.85
39455;BME280;25155;41.890;23.446;2023-12-04T01:10:07;91999.69;;;5.70;72.67
39455;BME280;25155;41.890;23.446;2023-12-04T01:12:34;92001.16;;;5.66;72.35
39455;BME280;25155;41.890;23.446;2023-12-04T01:15:02;92010.94;;;5.64;72.74
39455;BME280;25155;41.890;23.446;2023-12-04T01:17:30;92013.44;;;5.59;72.88
39455;BME280;25155;41.890;23.446;2023-12-04T01:19:58;92022.25;;;5.58;73.26
39455;BME280;25155;41.890;23.446;2023-12-04T01:22:26;92017.59;;;5.60;73.07
39455;BME280;25155;41.890;23.446;2023-12-04T01:24:53;92018.63;;;5.59;73.55
39455;BME280;25155;41.890;23.446;2023-12-04T01:27:20;92022.78;;;5.60;73.82
39455;BME280;25155;41.890;23.446;2023-12-04T01:29:48;92018.63;;;5.59;74.00
39455;BME280;25155;41.890;23.446;2023-12-04T01:32:15;92015.03;;;5.60;74.07
39455;BME280;25155;41.890;23.446;2023-12-04T01:34:42;92014.03;;;5.61;74.15
39455;BME280;25155;41.890;23.446;2023-12-04T01:37:10;92020.19;;;5.60;74.07
39455;BME280;25155;41.890;23.446;2023-12-04T01:39:38;92021.78;;;5.61;73.91
39455;BME280;25155;41.890;23.446;2023-12-04T01:42:05;92020.75;;;5.62;74.05
39455;BME280;25155;41.890;23.446;2023-12-04T01:44:32;92015.56;;;5.62;74.19
39455;BME280;25155;41.890;23.446;2023-12-04T01:46:59;92024.91;;;5.63;74.20
39455;BME280;25155;41.890;23.446;2023-12-04T01:49:26;92022.34;;;5.63;74.15
39455;BME280;25155;41.890;23.446;2023-12-04T01:51:54;92029.06;;;5.64;74.05
39455;BME280;25155;41.890;23.446;2023-12-04T01:54:23;92031.66;;;5.64;73.86
39455;BME280;25155;41.890;23.446;2023-12-04T01:56:51;92028.59;;;5.67;73.95
39455;BME280;25155;41.890;23.446;2023-12-04T01:59:18;92032.78;;;5.68;74.08
39455;BME280;25155;41.890;23.446;2023-12-04T02:01:45;92036.94;;;5.69;74.22
39455;BME280;25155;41.890;23.446;2023-12-04T02:04:13;92032.53;;;5.70;74.05
39455;BME280;25155;41.890;23.446;2023-12-04T02:06:41;92037.72;;;5.70;73.73
39455;BME280;25155;41.890;23.446;2023-12-04T02:09:09;92029.97;;;5.70;73.73
39455;BME280;25155;41.890;23.446;2023-12-04T02:11:39;92035.91;;;5.70;74.22
39455;BME280;25155;41.890;23.446;2023-12-04T02:14:07;92038.03;;;5.73;74.07
39455;BME280;25155;41.890;23.446;2023-12-04T02:16:38;92039.19;;;5.66;73.46
39455;BME280;25155;41.890;23.446;2023-12-04T02:19:07;92039.91;;;5.61;73.80
39455;BME280;25155;41.890;23.446;2023-12-04T02:21:35;92050.03;;;5.39;70.90
39455;BME280;25155;41.890;23.446;2023-12-04T02:24:04;92043.34;;;5.26;70.97
39455;BME280;25155;41.890;23.446;2023-12-04T02:26:34;92037.72;;;5.17;71.09
39455;BME280;25155;41.890;23.446;2023-12-04T02:29:11;92041.78;;;5.13;71.69
39455;BME280;25155;41.890;23.446;2023-12-04T02:31:41;92044.13;;;5.15;71.47
39455;BME280;25155;41.890;23.446;2023-12-04T02:34:11;92037.81;;;5.11;71.36
39455;BME280;25155;41.890;23.446;2023-12-04T02:36:41;92045.47;;;5.06;71.57
39455;BME280;25155;41.890;23.446;2023-12-04T02:39:11;92048.28;;;5.04;71.24
39455;BME280;25155;41.890;23.446;2023-12-04T02:41:38;92051.78;;;5.10;71.89
39455;BME280;25155;41.890;23.446;2023-12-04T02:44:05;92052.91;;;5.14;71.69
39455;BME280;25155;41.890;23.446;2023-12-04T02:46:33;92052.66;;;5.15;72.17
39455;BME280;25155;41.890;23.446;2023-12-04T02:49:02;92050.63;;;5.17;71.67
39455;BME280;25155;41.890;23.446;2023-12-04T02:51:29;92057.16;;;5.20;71.68
39455;BME280;25155;41.890;23.446;2023-12-04T02:53:56;92056.72;;;5.23;71.91
39455;BME280;25155;41.890;23.446;2023-12-04T02:56:24;92053.09;;;5.24;71.85
39455;BME280;25155;41.890;23.446;2023-12-04T02:58:51;92057.06;;;5.27;72.02
39455;BME280;25155;41.890;23.446;2023-12-04T03:01:19;92060.63;;;5.26;71.86
39455;BME280;25155;41.890;23.446;2023-12-04T03:03:46;92056.28;;;5.26;71.39
39455;BME280;25155;41.890;23.446;2023-12-04T03:06:13;92058.84;;;5.26;71.13
39455;BME280;25155;41.890;23.446;2023-12-04T03:08:42;92061.44;;;5.26;71.09
39455;BME280;25155;41.890;23.446;2023-12-04T03:11:09;92061.66;;;5.25;70.91
39455;BME280;25155;41.890;23.446;2023-12-04T03:13:38;92060.31;;;5.22;71.27
39455;BME280;25155;41.890;23.446;2023-12-04T03:16:14;92059.53;;;5.22;71.38
39455;BME280;25155;41.890;23.446;2023-12-04T03:18:41;92062.34;;;5.20;71.02
39455;BME280;25155;41.890;23.446;2023-12-04T03:21:09;92062.56;;;5.18;71.62
39455;BME280;25155;41.890;23.446;2023-12-04T03:23:36;92069.53;;;5.18;71.16
39455;BME280;25155;41.890;23.446;2023-12-04T03:26:03;92073.91;;;5.17;71.01
39455;BME280;25155;41.890;23.446;2023-12-04T03:28:30;92080.34;;;5.15;71.08
39455;BME280;25155;41.890;23.446;2023-12-04T03:30:59;92079.75;;;5.13;71.23
39455;BME280;25155;41.890;23.446;2023-12-04T03:33:26;92075.63;;;5.12;70.88
39455;BME280;25155;41.890;23.446;2023-12-04T03:35:53;92079.97;;;5.11;70.82
39455;BME280;25155;41.890;23.446;2023-12-04T03:38:20;92073.91;;;5.06;70.90
39455;BME280;25155;41.890;23.446;2023-12-04T03:40:48;92080.56;;;5.02;71.05
39455;BME280;25155;41.890;23.446;2023-12-04T03:43:15;92083.59;;;4.98;71.15
39455;BME280;25155;41.890;23.446;2023-12-04T03:45:42;92079.41;;;4.97;70.81
39455;BME280;25155;41.890;23.446;2023-12-04T03:48:10;92074.16;;;4.92;71.31
39455;BME280;25155;41.890;23.446;2023-12-04T03:50:38;92079.09;;;4.94;71.05
39455;BME280;25155;41.890;23.446;2023-12-04T03:53:05;92082.69;;;4.93;70.96
39455;BME280;25155;41.890;23.446;2023-12-04T03:55:32;92087.84;;;4.93;70.89
39455;BME280;25155;41.890;23.446;2023-12-04T03:58:00;92084.69;;;4.91;70.68
39455;BME280;25155;41.890;23.446;2023-12-04T04:00:27;92083.94;;;4.90;71.05
39455;BME280;25155;41.890;23.446;2023-12-04T04:02:55;92097.84;;;4.89;70.93
39455;BME280;25155;41.890;23.446;2023-12-04T04:05:23;92095.72;;;4.86;71.04
39455;BME280;25155;41.890;23.446;2023-12-04T04:07:50;92091.13;;;4.88;70.70
39455;BME280;25155;41.890;23.446;2023-12-04T04:10:17;92091.13;;;4.88;71.39
39455;BME280;25155;41.890;23.446;2023-12-04T04:12:44;92093.72;;;4.88;71.11
39455;BME280;25155;41.890;23.446;2023-12-04T04:15:12;92093.13;;;4.86;70.73
39455;BME280;25155;41.890;23.446;2023-12-04T04:17:39;92095.16;;;4.84;70.94
39455;BME280;25155;41.890;23.446;2023-12-04T04:20:08;92097.19;;;4.82;71.41
39455;BME280;25155;41.890;23.446;2023-12-04T04:22:38;92093.22;;;4.79;71.38
39455;BME280;25155;41.890;23.446;2023-12-04T04:25:07;92105.94;;;4.81;71.65
39455;BME280;25155;41.890;23.446;2023-12-04T04:27:34;92106.81;;;4.75;71.43
39455;BME280;25155;41.890;23.446;2023-12-04T04:30:02;92106.03;;;4.74;71.95
39455;BME280;25155;41.890;23.446;2023-12-04T04:32:30;92113.66;;;4.69;71.95
39455;BME280;25155;41.890;23.446;2023-12-04T04:34:57;92108.25;;;4.59;71.14
39455;BME280;25155;41.890;23.446;2023-12-04T04:37:24;92102.97;;;4.54;71.24
39455;BME280;25155;41.890;23.446;2023-12-04T04:39:53;92118.78;;;4.46;71.08
39455;BME280;25155;41.890;23.446;2023-12-04T04:42:21;92120.34;;;4.47;71.19
39455;BME280;25155;41.890;23.446;2023-12-04T04:44:49;92124.72;;;4.46;71.27
39455;BME280;25155;41.890;23.446;2023-12-04T04:47:16;92128.31;;;4.45;71.66
39455;BME280;25155;41.890;23.446;2023-12-04T04:49:43;92130.69;;;4.47;71.18
39455;BME280;25155;41.890;23.446;2023-12-04T04:52:11;92130.47;;;4.48;71.47
39455;BME280;25155;41.890;23.446;2023-12-04T04:54:38;92133.38;;;4.52;71.43
39455;BME280;25155;41.890;23.446;2023-12-04T04:57:07;92136.22;;;4.50;71.49
39455;BME280;25155;41.890;23.446;2023-12-04T04:59:34;92142.94;;;4.51;71.33
39455;BME280;25155;41.890;23.446;2023-12-04T05:02:01;92144.63;;;4.46;71.06
39455;BME280;25155;41.890;23.446;2023-12-04T05:04:29;92145.81;;;4.43;71.09
39455;BME280;25155;41.890;23.446;2023-12-04T05:06:56;92146.84;;;4.42;70.84
39455;BME280;25155;41.890;23.446;2023-12-04T05:09:23;92155.81;;;4.39;71.24
39455;BME280;25155;41.890;23.446;2023-12-04T05:11:50;92157.84;;;4.37;70.71
39455;BME280;25155;41.890;23.446;2023-12-04T05:14:19;92159.25;;;4.33;71.00
39455;BME280;25155;41.890;23.446;2023-12-04T05:16:50;92160.94;;;4.28;70.63
39455;BME280;25155;41.890;23.446;2023-12-04T05:19:17;92156.75;;;4.27;70.60
39455;BME280;25155;41.890;23.446;2023-12-04T05:21:44;92168.13;;;4.25;70.41
39455;BME280;25155;41.890;23.446;2023-12-04T05:24:11;92171.91;;;4.23;70.69
39455;BME280;25155;41.890;23.446;2023-12-04T05:26:39;92172.56;;;4.18;70.64
39455;BME280;25155;41.890;23.446;2023-12-04T05:29:06;92180.16;;;4.13;69.58
39455;BME280;25155;41.890;23.446;2023-12-04T05:31:35;92180.53;;;3.98;69.30
39455;BME280;25155;41.890;23.446;2023-12-04T05:34:02;92177.19;;;3.98;69.98
39455;BME280;25155;41.890;23.446;2023-12-04T05:36:30;92179.75;;;3.98;70.09
39455;BME280;25155;41.890;23.446;2023-12-04T05:38:57;92178.16;;;3.97;69.92
39455;BME280;25155;41.890;23.446;2023-12-04T05:41:25;92189.66;;;4.01;70.37
39455;BME280;25155;41.890;23.446;2023-12-04T05:43:55;92197.59;;;3.99;69.91
39455;BME280;25155;41.890;23.446;2023-12-04T05:46:22;92199.97;;;4.01;69.98
39455;BME280;25155;41.890;23.446;2023-12-04T05:48:51;92197.13;;;3.91;69.65
39455;BME280;25155;41.890;23.446;2023-12-04T05:51:18;92203.34;;;3.83;69.27
39455;BME280;25155;41.890;23.446;2023-12-04T05:53:45;92218.75;;;3.71;68.98
39455;BME280;25155;41.890;23.446;2023-12-04T05:56:13;92216.22;;;3.64;69.12
39455;BME280;25155;41.890;23.446;2023-12-04T05:58:40;92225.38;;;3.60;69.64
39455;BME280;25155;41.890;23.446;2023-12-04T06:01:07;92221.50;;;3.51;69.52
39455;BME280;25155;41.890;23.446;2023-12-04T06:03:36;92218.72;;;3.53;69.96
39455;BME280;25155;41.890;23.446;2023-12-04T06:06:05;92225.81;;;3.57;70.15
39455;BME280;25155;41.890;23.446;2023-12-04T06:08:33;92222.59;;;3.62;69.90
39455;BME280;25155;41.890;23.446;2023-12-04T06:11:01;92236.22;;;3.69;70.04
39455;BME280;25155;41.890;23.446;2023-12-04T06:13:28;92239.97;;;3.73;70.23
39455;BME280;25155;41.890;23.446;2023-12-04T06:15:55;92242.31;;;3.75;69.73
39455;BME280;25155;41.890;23.446;2023-12-04T06:18:23;92244.34;;;3.73;69.41
39455;BME280;25155;41.890;23.446;2023-12-04T06:20:50;92244.53;;;3.71;69.86
39455;BME280;25155;41.890;23.446;2023-12-04T06:23:20;92247.91;;;3.72;69.61
39455;BME280;25155;41.890;23.446;2023-12-04T06:25:47;92251.25;;;3.72;69.70
39455;BME280;25155;41.890;23.446;2023-12-04T06:28:16;92258.59;;;3.75;69.63
39455;BME280;25155;41.890;23.446;2023-12-04T06:30:43;92268.47;;;3.78;70.00
39455;BME280;25155;41.890;23.446;2023-12-04T06:33:11;92263.69;;;3.82;69.93
39455;BME280;25155;41.890;23.446;2023-12-04T06:35:41;92264.84;;;3.86;69.77
39455;BME280;25155;41.890;23.446;2023-12-04T06:38:08;92269.59;;;3.89;69.45
39455;BME280;25155;41.890;23.446;2023-12-04T06:40:39;92275.31;;;3.91;70.04
39455;BME280;25155;41.890;23.446;2023-12-04T06:43:06;92282.44;;;3.96;70.09
39455;BME280;25155;41.890;23.446;2023-12-04T06:45:34;92285.38;;;3.99;69.87
39455;BME280;25155;41.890;23.446;2023-12-04T06:48:02;92282.56;;;4.01;70.21
39455;BME280;25155;41.890;23.446;2023-12-04T06:50:30;92283.91;;;4.03;69.86
39455;BME280;25155;41.890;23.446;2023-12-04T06:52:57;92281.13;;;4.05;70.22
39455;BME280;25155;41.890;23.446;2023-12-04T06:55:25;92284.28;;;4.07;70.17
39455;BME280;25155;41.890;23.446;2023-12-04T06:57:54;92284.88;;;4.09;70.44
39455;BME280;25155;41.890;23.446;2023-12-04T07:00:21;92289.63;;;4.12;70.95
39455;BME280;25155;41.890;23.446;2023-12-04T07:02:49;92290.81;;;4.10;70.81
39455;BME280;25155;41.890;23.446;2023-12-04T07:05:17;92293.63;;;4.08;71.02
39455;BME280;25155;41.890;23.446;2023-12-04T07:07:45;92289.00;;;4.10;71.08
39455;BME280;25155;41.890;23.446;2023-12-04T07:10:12;92288.44;;;4.08;71.22
39455;BME280;25155;41.890;23.446;2023-12-04T07:12:40;92287.88;;;4.06;70.88
39455;BME280;25155;41.890;23.446;2023-12-04T07:15:09;92299.13;;;3.93;70.77
39455;BME280;25155;41.890;23.446;2023-12-04T07:17:37;92288.00;;;3.93;71.04
39455;BME280;25155;41.890;23.446;2023-12-04T07:20:05;92300.91;;;3.93;70.93
39455;BME280;25155;41.890;23.446;2023-12-04T07:22:34;92296.31;;;3.95;71.21
39455;BME280;25155;41.890;23.446;2023-12-04T07:25:01;92302.25;;;3.95;71.20
39455;BME280;25155;41.890;23.446;2023-12-04T07:27:28;92303.06;;;3.96;71.41
39455;BME280;25155;41.890;23.446;2023-12-04T07:29:55;92306.84;;;3.93;71.07
39455;BME280;25155;41.890;23.446;2023-12-04T07:32:23;92300.97;;;3.86;71.17
39455;BME280;25155;41.890;23.446;2023-12-04T07:34:51;92302.19;;;3.83;71.16
39455;BME280;25155;41.890;23.446;2023-12-04T07:37:18;92306.63;;;3.76;71.41
39455;BME280;25155;41.890;23.446;2023-12-04T07:39:45;92312.34;;;3.78;71.46
39455;BME280;25155;41.890;23.446;2023-12-04T07:42:12;92313.72;;;3.81;71.95
39455;BME280;25155;41.890;23.446;2023-12-04T07:44:39;92310.69;;;3.84;71.63
39455;BME280;25155;41.890;23.446;2023-12-04T07:47:06;92311.09;;;3.87;71.91
39455;BME280;25155;41.890;23.446;2023-12-04T07:49:35;92314.97;;;3.97;71.64
39455;BME280;25155;41.890;23.446;2023-12-04T07:52:02;92306.72;;;4.06;72.21
39455;BME280;25155;41.890;23.446;2023-12-04T07:54:30;92313.78;;;4.18;72.32
39455;BME280;25155;41.890;23.446;2023-12-04T07:56:57;92316.28;;;4.24;71.75
39455;BME280;25155;41.890;23.446;2023-12-04T07:59:24;92321.94;;;4.33;71.77
39455;BME280;25155;41.890;23.446;2023-12-04T08:01:51;92324.25;;;4.41;71.57
39455;BME280;25155;41.890;23.446;2023-12-04T08:04:18;92328.34;;;4.49;71.64
39455;BME280;25155;41.890;23.446;2023-12-04T08:06:47;92322.53;;;4.54;71.83
39455;BME280;25155;41.890;23.446;2023-12-04T08:09:14;92325.63;;;4.62;71.96
39455;BME280;25155;41.890;23.446;2023-12-04T08:11:42;92323.16;;;4.68;71.39
39455;BME280;25155;41.890;23.446;2023-12-04T08:14:09;92320.72;;;4.73;71.28
39455;BME280;25155;41.890;23.446;2023-12-04T08:16:36;92323.44;;;4.78;71.56
39455;BME280;25155;41.890;23.446;2023-12-04T08:19:04;92326.75;;;4.85;71.58
39455;BME280;25155;41.890;23.446;2023-12-04T08:21:31;92331.63;;;4.93;71.23
39455;BME280;25155;41.890;23.446;2023-12-04T08:24:00;92331.97;;;4.97;70.71
39455;BME280;25155;41.890;23.446;2023-12-04T08:26:27;92333.44;;;5.05;71.04
39455;BME280;25155;41.890;23.446;2023-12-04T08:28:54;92329.56;;;5.14;70.96
39455;BME280;25155;41.890;23.446;2023-12-04T08:31:22;92334.44;;;5.22;70.65
39455;BME280;25155;41.890;23.446;2023-12-04T08:33:49;92331.88;;;5.34;70.78
39455;BME280;25155;41.890;23.446;2023-12-04T08:36:16;92330.91;;;5.47;71.11
39455;BME280;25155;41.890;23.446;2023-12-04T08:38:43;92333.72;;;5.57;71.23
39455;BME280;25155;41.890;23.446;2023-12-04T08:41:12;92325.44;;;5.67;71.01
39455;BME280;25155;41.890;23.446;2023-12-04T08:43:39;92325.44;;;5.79;71.46
39455;BME280;25155;41.890;23.446;2023-12-04T08:46:07;92321.22;;;5.96;71.50
39455;BME280;25155;41.890;23.446;2023-12-04T08:48:37;92316.47;;;5.81;71.82
39455;BME280;25155;41.890;23.446;2023-12-04T08:51:05;92317.16;;;6.12;71.73
39455;BME280;25155;41.890;23.446;2023-12-04T08:53:33;92303.75;;;6.27;71.13
39455;BME280;25155;41.890;23.446;2023-12-04T08:56:01;92303.06;;;6.43;71.41
39455;BME280;25155;41.890;23.446;2023-12-04T08:58:30;92305.88;;;6.54;70.83
39455;BME280;25155;41.890;23.446;2023-12-04T09:00:56;92296.59;;;6.70;71.31
39455;BME280;25155;41.890;23.446;2023-12-04T09:03:23;92300.28;;;6.86;69.89
39455;BME280;25155;41.890;23.446;2023-12-04T09:05:50;92297.94;;;7.01;69.97
39455;BME280;25155;41.890;23.446;2023-12-04T09:08:18;92291.19;;;7.00;65.40
39455;BME280;25155;41.890;23.446;2023-12-04T09:10:45;92295.28;;;6.96;64.49
39455;BME280;25155;41.890;23.446;2023-12-04T09:13:13;92297.78;;;6.91;64.50
39455;BME280;25155;41.890;23.446;2023-12-04T09:15:42;92304.50;;;6.92;64.14
39455;BME280;25155;41.890;23.446;2023-12-04T09:18:09;92304.41;;;6.98;64.62
39455;BME280;25155;41.890;23.446;2023-12-04T09:20:36;92291.84;;;7.07;64.10
39455;BME280;25155;41.890;23.446;2023-12-04T09:23:04;92296.44;;;7.17;63.45
39455;BME280;25155;41.890;23.446;2023-12-04T09:25:31;92295.91;;;7.32;64.56
39455;BME280;25155;41.890;23.446;2023-12-04T09:27:58;92291.44;;;7.44;64.02
39455;BME280;25155;41.890;23.446;2023-12-04T09:30:25;92283.25;;;7.52;62.49
39455;BME280;25155;41.890;23.446;2023-12-04T09:32:54;92285.88;;;7.52;63.26
39455;BME280;25155;41.890;23.446;2023-12-04T09:35:21;92282.81;;;7.55;63.29
39455;BME280;25155;41.890;23.446;2023-12-04T09:37:48;92286.91;;;7.51;63.10
39455;BME280;25155;41.890;23.446;2023-12-04T09:40:16;92286.97;;;7.56;64.02
39455;BME280;25155;41.890;23.446;2023-12-04T09:42:44;92284.78;;;7.65;62.80
39455;BME280;25155;41.890;23.446;2023-12-04T09:45:12;92291.28;;;7.68;63.13
39455;BME280;25155;41.890;23.446;2023-12-04T09:47:41;92284.06;;;7.70;63.36
39455;BME280;25155;41.890;23.446;2023-12-04T09:50:10;92274.00;;;7.73;63.10
39455;BME280;25155;41.890;23.446;2023-12-04T09:52:38;92274.06;;;7.79;62.60
39455;BME280;25155;41.890;23.446;2023-12-04T09:55:05;92281.22;;;7.88;61.38
39455;BME280;25155;41.890;23.446;2023-12-04T09:57:33;92272.50;;;7.94;61.41
39455;BME280;25155;41.890;23.446;2023-12-04T10:00:02;92274.94;;;8.01;61.62
39455;BME280;25155;41.890;23.446;2023-12-04T10:02:30;92266.81;;;8.15;61.49
39455;BME280;25155;41.890;23.446;2023-12-04T10:04:59;92266.69;;;8.26;60.80
39455;BME280;25155;41.890;23.446;2023-12-04T10:07:27;92263.97;;;8.16;59.61
39455;BME280;25155;41.890;23.446;2023-12-04T10:09:55;92254.28;;;8.11;59.81
39455;BME280;25155;41.890;23.446;2023-12-04T10:12:22;92248.13;;;8.18;60.90
39455;BME280;25155;41.890;23.446;2023-12-04T10:15:03;92248.13;;;8.18;60.00
39455;BME280;25155;41.890;23.446;2023-12-04T10:17:33;92253.22;;;8.29;59.58
39455;BME280;25155;41.890;23.446;2023-12-04T10:20:08;92243.19;;;8.38;58.77
39455;BME280;25155;41.890;23.446;2023-12-04T10:22:55;92245.88;;;8.43;57.68
39455;BME280;25155;41.890;23.446;2023-12-04T10:25:23;92246.19;;;8.47;58.04
39455;BME280;25155;41.890;23.446;2023-12-04T10:27:51;92236.88;;;8.51;58.61
39455;BME280;25155;41.890;23.446;2023-12-04T10:30:25;92235.06;;;8.52;57.55
39455;BME280;25155;41.890;23.446;2023-12-04T10:32:56;92241.97;;;8.63;57.91
39455;BME280;25155;41.890;23.446;2023-12-04T10:35:28;92241.44;;;8.61;57.24
39455;BME280;25155;41.890;23.446;2023-12-04T10:37:58;92238.19;;;8.54;57.31
39455;BME280;25155;41.890;23.446;2023-12-04T10:40:26;92243.09;;;8.50;57.71
39455;BME280;25155;41.890;23.446;2023-12-04T10:43:11;92251.00;;;8.38;58.55
39455;BME280;25155;41.890;23.446;2023-12-04T10:45:39;92240.72;;;8.26;57.96
39455;BME280;25155;41.890;23.446;2023-12-04T10:48:08;92243.84;;;8.28;58.35
39455;BME280;25155;41.890;23.446;2023-12-04T10:50:36;92241.66;;;8.20;56.94
39455;BME280;25155;41.890;23.446;2023-12-04T10:53:06;92240.94;;;8.25;58.89
39455;BME280;25155;41.890;23.446;2023-12-04T10:55:35;92231.41;;;8.30;57.53
39455;BME280;25155;41.890;23.446;2023-12-04T10:58:05;92241.78;;;8.30;57.32
39455;BME280;25155;41.890;23.446;2023-12-04T11:00:34;92242.19;;;8.39;57.58
39455;BME280;25155;41.890;23.446;2023-12-04T11:03:06;92231.22;;;8.54;56.67
39455;BME280;25155;41.890;23.446;2023-12-04T11:05:37;92245.09;;;8.65;55.64
39455;BME280;25155;41.890;23.446;2023-12-04T11:08:08;92233.50;;;8.73;55.78
39455;BME280;25155;41.890;23.446;2023-12-04T11:10:41;92234.84;;;8.80;56.54
39455;BME280;25155;41.890;23.446;2023-12-04T11:13:16;92236.25;;;8.88;55.75
39455;BME280;25155;41.890;23.446;2023-12-04T11:15:48;92230.28;;;8.88;55.91
39455;BME280;25155;41.890;23.446;2023-12-04T11:18:18;92232.81;;;8.82;54.42
39455;BME280;25155;41.890;23.446;2023-12-04T11:20:51;92228.09;;;8.79;55.91
39455;BME280;25155;41.890;23.446;2023-12-04T11:23:24;92241.81;;;8.75;54.94
39455;BME280;25155;41.890;23.446;2023-12-04T11:25:53;92236.63;;;8.75;54.27
39455;BME280;25155;41.890;23.446;2023-12-04T11:28:21;92227.31;;;8.79;54.41
39455;BME280;25155;41.890;23.446;2023-12-04T11:30:48;92234.69;;;8.87;53.63
39455;BME280;25155;41.890;23.446;2023-12-04T11:33:16;92234.13;;;8.85;53.29
39455;BME280;25155;41.890;23.446;2023-12-04T11:35:44;92228.44;;;8.88;54.18
39455;BME280;25155;41.890;23.446;2023-12-04T11:38:13;92232.47;;;9.01;54.14
39455;BME280;25155;41.890;23.446;2023-12-04T11:40:43;92235.56;;;8.98;54.29
39455;BME280;25155;41.890;23.446;2023-12-04T11:43:24;92235.84;;;9.01;54.30
39455;BME280;25155;41.890;23.446;2023-12-04T11:45:51;92229.34;;;8.99;54.33
39455;BME280;25155;41.890;23.446;2023-12-04T11:48:22;92235.31;;;8.99;54.00
39455;BME280;25155;41.890;23.446;2023-12-04T11:50:50;92231.47;;;9.02;54.01
39455;BME280;25155;41.890;23.446;2023-12-04T11:53:18;92239.25;;;9.02;54.78
39455;BME280;25155;41.890;23.446;2023-12-04T11:55:47;92235.31;;;8.99;54.22
39455;BME280;25155;41.890;23.446;2023-12-04T11:58:16;92240.25;;;8.96;55.00
39455;BME280;25155;41.890;23.446;2023-12-04T12:00:44;92238.16;;;8.98;55.44
39455;BME280;25155;41.890;23.446;2023-12-04T12:03:15;92224.44;;;9.02;53.99
39455;BME280;25155;41.890;23.446;2023-12-04T12:05:42;92229.19;;;9.11;54.20
39455;BME280;25155;41.890;23.446;2023-12-04T12:08:09;92228.22;;;9.17;53.23
39455;BME280;25155;41.890;23.446;2023-12-04T12:10:37;92223.00;;;9.17;53.08
39455;BME280;25155;41.890;23.446;2023-12-04T12:13:05;92222.69;;;9.13;52.13
39455;BME280;25155;41.890;23.446;2023-12-04T12:15:33;92219.56;;;9.11;52.33
39455;BME280;25155;41.890;23.446;2023-12-04T12:18:00;92224.38;;;9.24;52.77
39455;BME280;25155;41.890;23.446;2023-12-04T12:20:27;92219.94;;;9.25;52.73
39455;BME280;25155;41.890;23.446;2023-12-04T12:22:54;92213.47;;;9.28;52.41
39455;BME280;25155;41.890;23.446;2023-12-04T12:25:21;92218.97;;;9.31;53.32
39455;BME280;25155;41.890;23.446;2023-12-04T12:27:50;92219.75;;;9.32;52.77
39455;BME280;25155;41.890;23.446;2023-12-04T12:30:19;92211.69;;;9.33;53.97
39455;BME280;25155;41.890;23.446;2023-12-04T12:32:46;92211.09;;;9.26;54.44
39455;BME280;25155;41.890;23.446;2023-12-04T12:35:13;92208.94;;;9.18;54.35
39455;BME280;25155;41.890;23.446;2023-12-04T12:37:40;92210.25;;;9.15;53.92
39455;BME280;25155;41.890;23.446;2023-12-04T12:40:10;92212.59;;;9.17;53.56
39455;BME280;25155;41.890;23.446;2023-12-04T12:42:37;92216.31;;;9.26;53.85
39455;BME280;25155;41.890;23.446;2023-12-04T12:45:08;92213.25;;;9.34;53.31
39455;BME280;25155;41.890;23.446;2023-12-04T12:47:40;92216.69;;;9.40;53.72
39455;BME280;25155;41.890;23.446;2023-12-04T12:50:08;92212.34;;;9.51;53.44
39455;BME280;25155;41.890;23.446;2023-12-04T12:52:39;92216.13;;;9.65;53.08
39455;BME280;25155;41.890;23.446;2023-12-04T12:55:07;92215.38;;;9.70;52.05
39455;BME280;25155;41.890;23.446;2023-12-04T12:57:35;92216.69;;;9.72;53.99
39455;BME280;25155;41.890;23.446;2023-12-04T13:00:03;92210.28;;;9.53;53.95
39455;BME280;25155;41.890;23.446;2023-12-04T13:02:35;92207.06;;;9.40;54.08
39455;BME280;25155;41.890;23.446;2023-12-04T13:05:05;92208.84;;;9.35;54.64